Serra Negra Do Norte, Brazil
Current Conditions -  °F | °C
As of 12:00 PM on Sunday 21 Dec 2014 (Local Time) from SBKG Reporting Station
Scattered Clouds Scattered Clouds  
Wind Chill: 84°   Ceiling: Unl
Heat Index: 86°   Visibility: 6mi
Dew Point: 66°   Wind: 15mph
Humidity: 55%   Direction: 100°E
Pressure: 30"   Gusts: NA
Location:  6.67°S, 37.4°W
Report Text: SBKG 211500Z 10013KT 070V130 9999 SCT040 29/19 Q1016
Loading
Personal Weather Stations






























Interactive Weather Map New forecast layout! Learn more

10-Day Weather Forecast

Advertisements
Track Severe Weather on mobile